Time;durP1;ratioP1;P1;durP2;ratioP2;P2;SDS_P1;SDS_P2;PMS_P1;PMS_P2;Temp;Humidity;BMP_temperature;BMP_pressure;BME280_temperature;BME280_humidity;BME280_pressure;Samples;Min_cycle;Max_cycle;Signal;HPM_P1;HPM_P2
2022/11/26 00:00:36;;;;;;;197.90;42.77;;;;;;;;;;5023884;28;20231;-52
2022/11/26 00:03:02;;;;;;;361.80;85.60;;;;;;;;;;5029092;28;20601;-54
2022/11/26 00:05:30;;;;;;;393.27;79.97;;;;;;;;;;5030014;28;20707;-54
2022/11/26 00:07:57;;;;;;;265.73;61.63;;;;;;;;;;5030750;28;20642;-52
2022/11/26 00:10:24;;;;;;;428.97;85.10;;;;;;;;;;5030085;28;20224;-53
2022/11/26 00:12:51;;;;;;;294.47;60.07;;;;;;;;;;5027790;28;20224;-53
2022/11/26 00:15:19;;;;;;;292.43;64.63;;;;;;;;;;5025599;28;20270;-53
2022/11/26 00:17:45;;;;;;;279.53;60.37;;;;;;;;;;5025085;28;20212;-53
2022/11/26 00:20:11;;;;;;;433.83;108.93;;;;;;;;;;5018912;28;20219;-52
2022/11/26 00:22:40;;;;;;;358.57;69.50;;;;;;;;;;5022508;28;21098;-53
2022/11/26 00:25:06;;;;;;;388.67;90.07;;;;;;;;;;5023228;28;20656;-53
2022/11/26 00:27:32;;;;;;;272.07;57.00;;;;;;;;;;5023345;28;20196;-52
2022/11/26 00:29:58;;;;;;;339.03;73.77;;;;;;;;;;5021569;28;20177;-53
2022/11/26 00:32:25;;;;;;;417.13;88.03;;;;;;;;;;5025720;28;20335;-55
2022/11/26 00:34:51;;;;;;;461.37;99.10;;;;;;;;;;5019978;28;20228;-54
2022/11/26 00:37:31;;;;;;;319.30;64.07;;;;;;;;;;5024523;28;20603;-54
2022/11/26 00:39:57;;;;;;;178.23;37.37;;;;;;;;;;5021382;28;20211;-51
2022/11/26 00:42:23;;;;;;;329.77;66.97;;;;;;;;;;5020428;28;20216;-53
2022/11/26 00:44:49;;;;;;;217.03;47.57;;;;;;;;;;5022099;28;20724;-54
2022/11/26 00:47:15;;;;;;;401.80;91.40;;;;;;;;;;5024470;28;20224;-53
2022/11/26 00:49:41;;;;;;;310.93;60.60;;;;;;;;;;5022271;28;20333;-53
2022/11/26 00:52:30;;;;;;;318.03;65.47;;;;;;;;;;5032680;28;20310;-52
2022/11/26 00:54:56;;;;;;;200.53;43.13;;;;;;;;;;5014288;28;20695;-53
2022/11/26 00:57:22;;;;;;;417.43;88.50;;;;;;;;;;5020728;28;20325;-53
2022/11/26 00:59:48;;;;;;;428.43;93.97;;;;;;;;;;5038974;28;20199;-52
2022/11/26 01:02:14;;;;;;;433.77;90.87;;;;;;;;;;5031994;28;20223;-54
2022/11/26 01:04:40;;;;;;;267.53;54.20;;;;;;;;;;5031156;28;20216;-54
2022/11/26 01:07:08;;;;;;;195.37;39.90;;;;;;;;;;5029279;28;20222;-53
2022/11/26 01:09:34;;;;;;;460.77;92.03;;;;;;;;;;5024869;28;20715;-54
2022/11/26 01:12:00;;;;;;;255.93;50.13;;;;;;;;;;5027660;28;20195;-53
2022/11/26 01:14:26;;;;;;;354.43;73.33;;;;;;;;;;5022908;28;20217;-52
2022/11/26 01:16:54;;;;;;;355.10;71.43;;;;;;;;;;5024644;28;20695;-52
2022/11/26 01:19:20;;;;;;;302.17;62.97;;;;;;;;;;5022465;28;20688;-54
2022/11/26 01:21:46;;;;;;;256.83;49.30;;;;;;;;;;5025166;28;20303;-52
2022/11/26 01:24:12;;;;;;;426.13;86.03;;;;;;;;;;5025038;28;20236;-52
2022/11/26 01:26:39;;;;;;;494.47;106.73;;;;;;;;;;5020406;28;20247;-52
2022/11/26 01:29:05;;;;;;;232.80;49.93;;;;;;;;;;5040262;28;20221;-53
2022/11/26 01:31:31;;;;;;;383.63;80.40;;;;;;;;;;5022285;28;20238;-52
2022/11/26 01:33:57;;;;;;;198.00;43.33;;;;;;;;;;5023447;28;20211;-51
2022/11/26 01:36:23;;;;;;;363.53;73.83;;;;;;;;;;5023183;28;20278;-54
2022/11/26 01:38:51;;;;;;;213.73;44.37;;;;;;;;;;5024702;28;20377;-53
2022/11/26 01:41:19;;;;;;;336.37;69.67;;;;;;;;;;5019859;28;20311;-53
2022/11/26 01:43:47;;;;;;;287.00;65.37;;;;;;;;;;5021012;28;20219;-53
2022/11/26 01:46:17;;;;;;;176.13;34.90;;;;;;;;;;5025218;28;20685;-53
2022/11/26 01:48:43;;;;;;;320.83;62.67;;;;;;;;;;5018180;28;20208;-53
2022/11/26 01:51:10;;;;;;;179.20;39.17;;;;;;;;;;5038624;28;20188;-52
2022/11/26 01:53:41;;;;;;;441.93;90.90;;;;;;;;;;5023053;28;20231;-52
2022/11/26 01:56:13;;;;;;;334.23;72.07;;;;;;;;;;5017830;28;20453;-52
2022/11/26 01:58:41;;;;;;;398.80;95.50;;;;;;;;;;5020301;28;20204;-54
2022/11/26 02:01:07;;;;;;;197.50;44.07;;;;;;;;;;5021899;28;20208;-54
2022/11/26 02:03:36;;;;;;;295.07;67.33;;;;;;;;;;5027276;28;20201;-53
2022/11/26 02:06:08;;;;;;;477.97;97.43;;;;;;;;;;5025445;28;20187;-53
2022/11/26 02:08:34;;;;;;;410.23;88.57;;;;;;;;;;5024117;28;20239;-53
2022/11/26 02:11:09;;;;;;;302.80;62.10;;;;;;;;;;5024912;28;20485;-53
2022/11/26 02:13:35;;;;;;;328.17;64.27;;;;;;;;;;5026315;28;20207;-53
2022/11/26 02:16:09;;;;;;;257.07;58.07;;;;;;;;;;5023858;28;20227;-53
2022/11/26 02:18:37;;;;;;;344.40;77.67;;;;;;;;;;5023601;28;20184;-53
2022/11/26 02:21:06;;;;;;;326.77;66.57;;;;;;;;;;5025270;28;20654;-52
2022/11/26 02:23:38;;;;;;;243.63;50.93;;;;;;;;;;5037088;28;20223;-53
2022/11/26 02:26:14;;;;;;;287.60;66.27;;;;;;;;;;5022461;28;20288;-53
2022/11/26 02:28:59;;;;;;;175.17;37.43;;;;;;;;;;5026341;28;20230;-53
2022/11/26 02:31:37;;;;;;;463.43;95.17;;;;;;;;;;5025050;28;20220;-54
2022/11/26 02:34:13;;;;;;;300.60;68.27;;;;;;;;;;5014482;28;20248;-54
2022/11/26 02:36:46;;;;;;;167.03;35.20;;;;;;;;;;5008399;28;20223;-53
2022/11/26 02:39:20;;;;;;;443.63;91.77;;;;;;;;;;5034781;28;20184;-52
2022/11/26 02:41:47;;;;;;;305.47;66.23;;;;;;;;;;5023582;28;20315;-52
2022/11/26 02:44:15;;;;;;;194.07;40.13;;;;;;;;;;5024209;28;20558;-52
2022/11/26 02:46:41;;;;;;;308.33;63.07;;;;;;;;;;5027688;28;20226;-53
2022/11/26 02:49:10;;;;;;;320.90;64.27;;;;;;;;;;5025926;28;20740;-54
2022/11/26 02:51:36;;;;;;;365.30;76.97;;;;;;;;;;5024915;28;20655;-53
2022/11/26 02:54:05;;;;;;;326.53;66.50;;;;;;;;;;5024164;28;20653;-53
2022/11/26 02:56:31;;;;;;;251.33;53.80;;;;;;;;;;5032072;28;20314;-53
2022/11/26 02:58:58;;;;;;;413.17;85.13;;;;;;;;;;5026583;28;20299;-53
2022/11/26 03:01:28;;;;;;;299.60;70.03;;;;;;;;;;5021686;28;20407;-53
2022/11/26 03:03:57;;;;;;;475.10;101.90;;;;;;;;;;5022267;28;20613;-54
2022/11/26 03:06:24;;;;;;;210.47;43.40;;;;;;;;;;5041343;28;20176;-52
2022/11/26 03:08:50;;;;;;;407.53;85.27;;;;;;;;;;5021100;28;20718;-53
2022/11/26 03:11:16;;;;;;;508.57;107.63;;;;;;;;;;5008320;28;20221;-53
2022/11/26 03:13:42;;;;;;;316.50;71.83;;;;;;;;;;5003175;28;20236;-52
2022/11/26 03:16:08;;;;;;;314.73;62.00;;;;;;;;;;5008968;28;20212;-53
2022/11/26 03:18:34;;;;;;;235.40;45.10;;;;;;;;;;4997457;28;20252;-53
2022/11/26 03:21:00;;;;;;;342.40;72.90;;;;;;;;;;5003573;28;20201;-52
2022/11/26 03:23:26;;;;;;;189.70;39.27;;;;;;;;;;5004464;28;20213;-53
2022/11/26 03:25:51;;;;;;;328.37;72.90;;;;;;;;;;5007507;28;20208;-52
2022/11/26 03:28:17;;;;;;;319.97;67.03;;;;;;;;;;5003687;28;20685;-53
2022/11/26 03:30:43;;;;;;;155.67;33.63;;;;;;;;;;5003821;28;20223;-53
2022/11/26 03:33:09;;;;;;;319.17;67.27;;;;;;;;;;5003222;28;20207;-53
2022/11/26 03:35:35;;;;;;;314.20;63.67;;;;;;;;;;5005327;28;20239;-52
2022/11/26 03:38:01;;;;;;;330.67;77.50;;;;;;;;;;5002515;28;20232;-54
2022/11/26 03:40:27;;;;;;;157.13;33.47;;;;;;;;;;5003812;28;20574;-52
2022/11/26 03:42:53;;;;;;;312.73;64.97;;;;;;;;;;5003942;28;20232;-52
2022/11/26 03:45:19;;;;;;;301.83;63.13;;;;;;;;;;5006818;28;20692;-54
2022/11/26 03:47:45;;;;;;;212.80;44.83;;;;;;;;;;5012584;28;20511;-53
2022/11/26 03:50:11;;;;;;;337.80;66.67;;;;;;;;;;5005528;28;20543;-54
2022/11/26 03:52:37;;;;;;;180.17;39.73;;;;;;;;;;5008358;28;20296;-52
2022/11/26 03:55:03;;;;;;;410.47;85.23;;;;;;;;;;5008263;28;20660;-53
2022/11/26 03:57:29;;;;;;;312.27;68.13;;;;;;;;;;5003918;28;20201;-54
2022/11/26 03:59:55;;;;;;;427.67;100.47;;;;;;;;;;5006332;28;20231;-54
2022/11/26 04:02:21;;;;;;;165.43;38.87;;;;;;;;;;5007806;28;20224;-53
2022/11/26 04:04:47;;;;;;;327.20;64.00;;;;;;;;;;5002997;28;20745;-53
2022/11/26 04:07:13;;;;;;;422.80;83.90;;;;;;;;;;5006789;28;20296;-52
2022/11/26 04:09:39;;;;;;;309.70;65.60;;;;;;;;;;5009790;28;20621;-52
2022/11/26 04:12:05;;;;;;;300.47;67.77;;;;;;;;;;5012664;28;20279;-52
2022/11/26 04:14:31;;;;;;;300.80;58.17;;;;;;;;;;5006923;28;20271;-52
2022/11/26 04:16:57;;;;;;;285.17;58.23;;;;;;;;;;5007365;28;20221;-53
2022/11/26 04:19:23;;;;;;;205.67;42.00;;;;;;;;;;5006277;28;20213;-53
2022/11/26 04:21:49;;;;;;;397.23;73.83;;;;;;;;;;5004947;28;20216;-53
2022/11/26 04:24:15;;;;;;;362.23;74.40;;;;;;;;;;5005737;28;20275;-53
2022/11/26 04:26:41;;;;;;;194.17;41.13;;;;;;;;;;5003527;28;20307;-53
2022/11/26 04:29:07;;;;;;;388.07;74.80;;;;;;;;;;5016629;28;20217;-53
2022/11/26 04:31:33;;;;;;;160.00;32.67;;;;;;;;;;5003010;28;20216;-53
2022/11/26 04:33:58;;;;;;;305.43;63.47;;;;;;;;;;5005309;28;20239;-52
2022/11/26 04:36:24;;;;;;;231.77;46.13;;;;;;;;;;5003453;28;20192;-54
2022/11/26 04:38:50;;;;;;;324.43;62.23;;;;;;;;;;5003209;28;20177;-53
2022/11/26 04:41:17;;;;;;;368.30;72.57;;;;;;;;;;5001808;28;20597;-53
2022/11/26 04:43:42;;;;;;;190.33;41.63;;;;;;;;;;5009199;28;20936;-53
2022/11/26 04:46:08;;;;;;;305.63;55.50;;;;;;;;;;5006196;28;20220;-54
2022/11/26 04:48:34;;;;;;;161.30;34.87;;;;;;;;;;5004007;28;20197;-52
2022/11/26 04:51:00;;;;;;;443.57;92.67;;;;;;;;;;5004210;28;20310;-53
2022/11/26 04:53:26;;;;;;;427.40;86.50;;;;;;;;;;5002202;28;20232;-54
2022/11/26 04:55:52;;;;;;;462.63;98.47;;;;;;;;;;5004914;28;20399;-53
2022/11/26 04:58:19;;;;;;;273.63;54.87;;;;;;;;;;5018022;28;20224;-52
2022/11/26 05:00:45;;;;;;;199.57;42.93;;;;;;;;;;5000147;28;20306;-53
2022/11/26 05:03:11;;;;;;;456.17;96.20;;;;;;;;;;5005196;28;20213;-53
2022/11/26 05:05:37;;;;;;;297.83;64.13;;;;;;;;;;5003295;28;20222;-53
2022/11/26 05:08:03;;;;;;;338.77;66.60;;;;;;;;;;5004127;28;20212;-53
2022/11/26 05:10:29;;;;;;;347.90;69.57;;;;;;;;;;5002062;28;20212;-53
2022/11/26 05:12:55;;;;;;;246.17;53.80;;;;;;;;;;5008561;28;20289;-53
2022/11/26 05:15:21;;;;;;;330.13;70.27;;;;;;;;;;5018723;28;20184;-53
2022/11/26 05:17:46;;;;;;;385.53;83.50;;;;;;;;;;5002797;28;20604;-55
2022/11/26 05:20:13;;;;;;;457.73;92.33;;;;;;;;;;5004564;28;20240;-52
2022/11/26 05:22:39;;;;;;;263.07;53.43;;;;;;;;;;5003582;28;20725;-53
2022/11/26 05:25:06;;;;;;;413.40;85.33;;;;;;;;;;5002873;28;20358;-52
2022/11/26 05:27:31;;;;;;;165.67;35.17;;;;;;;;;;5003640;28;20204;-53
2022/11/26 05:29:57;;;;;;;247.33;55.03;;;;;;;;;;5017915;28;20188;-53
2022/11/26 05:32:23;;;;;;;314.13;59.60;;;;;;;;;;5010097;28;20219;-53
2022/11/26 05:34:49;;;;;;;270.87;57.60;;;;;;;;;;5004244;28;20832;-52
2022/11/26 05:37:15;;;;;;;395.83;81.20;;;;;;;;;;5004604;28;20727;-54
2022/11/26 05:39:41;;;;;;;159.80;32.83;;;;;;;;;;5003329;28;20293;-54
2022/11/26 05:42:07;;;;;;;288.70;67.90;;;;;;;;;;4998002;28;20216;-53
2022/11/26 05:44:33;;;;;;;189.57;40.23;;;;;;;;;;5009481;28;20212;-52
2022/11/26 05:46:59;;;;;;;409.47;84.67;;;;;;;;;;5016450;28;20208;-54
2022/11/26 05:49:25;;;;;;;437.10;82.53;;;;;;;;;;5016667;28;20258;-53
2022/11/26 05:51:51;;;;;;;305.13;59.43;;;;;;;;;;5017898;28;20360;-54
2022/11/26 05:54:17;;;;;;;306.47;60.77;;;;;;;;;;5024816;28;20185;-53
2022/11/26 05:56:43;;;;;;;176.53;38.20;;;;;;;;;;5006722;28;20215;-53
2022/11/26 05:59:09;;;;;;;382.00;74.20;;;;;;;;;;5005291;28;20712;-52
2022/11/26 06:01:35;;;;;;;218.43;48.40;;;;;;;;;;5005896;28;20204;-53
2022/11/26 06:04:01;;;;;;;312.30;62.73;;;;;;;;;;5015244;28;20464;-53
2022/11/26 06:06:27;;;;;;;270.40;60.00;;;;;;;;;;5014193;28;20189;-53
2022/11/26 06:08:53;;;;;;;176.03;42.57;;;;;;;;;;5014240;28;20188;-52
2022/11/26 06:11:19;;;;;;;322.17;64.93;;;;;;;;;;5007198;28;20212;-53
2022/11/26 06:13:45;;;;;;;292.67;56.57;;;;;;;;;;5010886;28;20208;-54
2022/11/26 06:16:11;;;;;;;382.03;90.13;;;;;;;;;;5005880;28;20710;-53
2022/11/26 06:18:37;;;;;;;343.33;73.23;;;;;;;;;;5007356;28;20231;-52
2022/11/26 06:21:04;;;;;;;367.27;73.20;;;;;;;;;;5008191;28;20238;-54
2022/11/26 06:23:31;;;;;;;157.63;37.87;;;;;;;;;;5012171;28;20224;-53
2022/11/26 06:25:57;;;;;;;287.00;64.30;;;;;;;;;;5008935;28;20216;-54
2022/11/26 06:28:23;;;;;;;309.47;68.50;;;;;;;;;;5015161;28;20224;-54
2022/11/26 06:30:49;;;;;;;179.70;46.50;;;;;;;;;;5009569;28;20224;-52
2022/11/26 06:33:15;;;;;;;412.13;88.50;;;;;;;;;;5011924;28;20212;-53
2022/11/26 06:35:41;;;;;;;225.33;50.73;;;;;;;;;;5011199;28;20966;-54
2022/11/26 06:38:07;;;;;;;245.17;56.23;;;;;;;;;;5009883;28;20311;-53
2022/11/26 06:40:33;;;;;;;179.63;42.30;;;;;;;;;;5009431;28;20224;-53
2022/11/26 06:42:59;;;;;;;328.93;73.13;;;;;;;;;;5009408;28;20217;-53
2022/11/26 06:45:25;;;;;;;362.00;79.53;;;;;;;;;;5004861;28;20199;-53
2022/11/26 06:47:51;;;;;;;273.73;78.23;;;;;;;;;;5006171;28;20177;-54
2022/11/26 06:50:19;;;;;;;411.53;128.57;;;;;;;;;;5005760;28;20212;-53
2022/11/26 06:52:45;;;;;;;329.83;110.93;;;;;;;;;;4993065;28;21118;-53
2022/11/26 06:55:11;;;;;;;339.13;113.27;;;;;;;;;;4987793;28;20239;-54
2022/11/26 06:57:37;;;;;;;322.10;111.33;;;;;;;;;;4995933;28;20224;-52
2022/11/26 07:00:04;;;;;;;381.87;135.37;;;;;;;;;;4963713;28;20621;-53
2022/11/26 07:02:30;;;;;;;402.57;143.27;;;;;;;;;;4999769;28;20640;-53
2022/11/26 07:04:56;;;;;;;315.20;115.67;;;;;;;;;;4990303;28;20232;-53
2022/11/26 07:07:22;;;;;;;490.93;170.13;;;;;;;;;;4982321;28;20248;-52
2022/11/26 07:09:48;;;;;;;389.80;138.37;;;;;;;;;;4980703;28;20757;-53
2022/11/26 07:12:14;;;;;;;479.03;147.20;;;;;;;;;;4983231;28;20215;-53
2022/11/26 07:14:40;;;;;;;479.60;154.63;;;;;;;;;;4988547;28;20555;-54
2022/11/26 07:17:06;;;;;;;411.00;135.27;;;;;;;;;;4982073;28;20223;-53
2022/11/26 07:19:32;;;;;;;253.33;95.93;;;;;;;;;;4986178;28;22302;-54
2022/11/26 07:21:57;;;;;;;484.67;162.50;;;;;;;;;;4978562;28;20242;-54
2022/11/26 07:24:23;;;;;;;396.57;135.73;;;;;;;;;;4984045;28;20319;-54
2022/11/26 07:26:49;;;;;;;309.30;120.50;;;;;;;;;;4984133;28;20215;-52
2022/11/26 07:29:16;;;;;;;478.67;163.57;;;;;;;;;;4983214;28;20792;-52
2022/11/26 07:31:42;;;;;;;444.53;146.33;;;;;;;;;;4994107;28;20619;-54
2022/11/26 07:34:07;;;;;;;411.60;145.70;;;;;;;;;;5000015;28;21878;-53
2022/11/26 07:36:33;;;;;;;426.43;141.80;;;;;;;;;;5001104;28;20196;-54
2022/11/26 07:39:00;;;;;;;436.60;150.97;;;;;;;;;;4954745;28;20203;-54
2022/11/26 07:41:27;;;;;;;359.53;116.67;;;;;;;;;;5018922;28;20546;-54
2022/11/26 07:43:53;;;;;;;456.87;153.47;;;;;;;;;;4997481;28;20667;-53
2022/11/26 07:46:20;;;;;;;367.60;122.33;;;;;;;;;;4994861;28;20247;-53
2022/11/26 07:48:47;;;;;;;398.10;129.27;;;;;;;;;;4993997;28;20220;-53
2022/11/26 07:51:17;;;;;;;306.53;110.03;;;;;;;;;;4992225;28;20197;-53
2022/11/26 07:53:43;;;;;;;294.80;109.47;;;;;;;;;;4992618;28;20307;-54
2022/11/26 07:56:09;;;;;;;259.20;95.27;;;;;;;;;;4993241;28;20956;-53
2022/11/26 07:58:35;;;;;;;359.93;121.70;;;;;;;;;;4993874;28;20220;-54
2022/11/26 08:01:14;;;;;;;351.97;129.87;;;;;;;;;;4987512;28;20212;-53
2022/11/26 08:03:42;;;;;;;407.47;135.30;;;;;;;;;;4981974;28;20216;-54
2022/11/26 08:06:08;;;;;;;381.83;136.13;;;;;;;;;;4987557;28;20263;-53
2022/11/26 08:08:35;;;;;;;300.73;109.20;;;;;;;;;;4990829;28;20288;-53
2022/11/26 08:11:02;;;;;;;467.47;153.37;;;;;;;;;;4989737;28;20743;-54
2022/11/26 08:13:28;;;;;;;387.67;141.30;;;;;;;;;;4990309;28;20240;-53
2022/11/26 08:15:53;;;;;;;320.37;113.27;;;;;;;;;;5000926;28;20282;-53
2022/11/26 08:18:19;;;;;;;351.80;122.60;;;;;;;;;;4996705;28;20212;-54
2022/11/26 08:20:53;;;;;;;407.00;149.10;;;;;;;;;;5003610;28;20185;-53
2022/11/26 08:23:19;;;;;;;206.80;91.53;;;;;;;;;;4998810;28;20299;-54
2022/11/26 08:25:45;;;;;;;356.00;132.80;;;;;;;;;;4998106;28;20281;-53
2022/11/26 08:28:11;;;;;;;388.37;136.50;;;;;;;;;;4992448;28;20604;-53
2022/11/26 08:30:37;;;;;;;367.47;125.73;;;;;;;;;;4993181;28;20236;-53
2022/11/26 08:33:03;;;;;;;327.87;118.93;;;;;;;;;;4993714;28;20204;-53
2022/11/26 08:35:28;;;;;;;362.97;130.60;;;;;;;;;;4989064;28;20372;-54
2022/11/26 08:37:54;;;;;;;442.63;151.67;;;;;;;;;;4987312;28;20562;-52
2022/11/26 08:40:20;;;;;;;251.70;102.37;;;;;;;;;;4997184;28;20208;-53
2022/11/26 08:42:46;;;;;;;434.67;150.10;;;;;;;;;;5004934;28;20643;-52
2022/11/26 08:45:12;;;;;;;335.97;127.73;;;;;;;;;;5000503;28;20180;-53
2022/11/26 08:47:38;;;;;;;451.00;167.03;;;;;;;;;;4996352;28;20224;-53
2022/11/26 08:50:05;;;;;;;391.97;145.37;;;;;;;;;;4998601;28;20254;-54
2022/11/26 08:52:31;;;;;;;261.13;113.03;;;;;;;;;;4996345;28;20720;-52
2022/11/26 08:54:57;;;;;;;556.17;186.33;;;;;;;;;;4991906;28;20308;-53
2022/11/26 08:57:23;;;;;;;316.93;111.73;;;;;;;;;;4996288;28;20281;-54
2022/11/26 08:59:50;;;;;;;378.80;138.73;;;;;;;;;;4999295;28;20188;-54
2022/11/26 09:02:17;;;;;;;384.13;136.20;;;;;;;;;;4987748;28;20311;-53
2022/11/26 09:04:42;;;;;;;414.87;144.80;;;;;;;;;;4986998;28;20217;-53
2022/11/26 09:07:08;;;;;;;490.03;182.37;;;;;;;;;;4998898;28;20216;-53
2022/11/26 09:09:34;;;;;;;424.03;152.17;;;;;;;;;;4994060;28;20200;-53
2022/11/26 09:12:01;;;;;;;409.93;154.47;;;;;;;;;;4991597;28;20215;-53
2022/11/26 09:14:29;;;;;;;379.33;144.77;;;;;;;;;;4999396;28;20216;-53
2022/11/26 09:16:56;;;;;;;440.50;164.77;;;;;;;;;;4988669;28;20207;-53
2022/11/26 09:19:22;;;;;;;295.90;116.03;;;;;;;;;;5000536;28;20279;-54
2022/11/26 09:21:48;;;;;;;417.90;143.93;;;;;;;;;;5005706;28;20220;-53
2022/11/26 09:24:15;;;;;;;341.73;128.20;;;;;;;;;;5009563;28;20232;-54
2022/11/26 09:26:41;;;;;;;375.73;139.57;;;;;;;;;;4994708;28;20335;-54
2022/11/26 09:29:07;;;;;;;396.37;155.33;;;;;;;;;;4985130;28;20240;-53
2022/11/26 09:31:33;;;;;;;334.57;135.90;;;;;;;;;;4982879;28;21150;-54
2022/11/26 09:34:00;;;;;;;410.00;148.73;;;;;;;;;;4982117;28;20605;-54
2022/11/26 09:36:26;;;;;;;364.97;140.63;;;;;;;;;;4989598;28;20221;-53
2022/11/26 09:38:53;;;;;;;478.80;161.60;;;;;;;;;;4979423;28;20275;-54
2022/11/26 09:41:19;;;;;;;473.57;171.67;;;;;;;;;;4984183;28;20615;-54
2022/11/26 09:43:54;;;;;;;451.40;166.63;;;;;;;;;;4982306;28;20229;-54
2022/11/26 09:46:24;;;;;;;279.77;117.23;;;;;;;;;;5000739;28;20220;-53
2022/11/26 09:48:50;;;;;;;369.27;127.33;;;;;;;;;;4988851;28;20228;-54
2022/11/26 09:51:19;;;;;;;462.23;175.30;;;;;;;;;;4990361;28;20214;-54
2022/11/26 09:53:46;;;;;;;383.43;142.77;;;;;;;;;;4973809;28;20276;-53
2022/11/26 09:56:15;;;;;;;375.37;145.53;;;;;;;;;;4987347;28;20232;-54
2022/11/26 09:58:50;;;;;;;290.20;119.47;;;;;;;;;;4982942;28;21045;-54
2022/11/26 10:01:19;;;;;;;547.20;194.07;;;;;;;;;;4983027;28;20212;-55
2022/11/26 10:03:45;;;;;;;470.07;169.30;;;;;;;;;;5003453;28;20383;-53
2022/11/26 10:06:30;;;;;;;564.03;189.47;;;;;;;;;;4988067;28;20686;-53
2022/11/26 10:09:03;;;;;;;359.47;145.53;;;;;;;;;;4979470;28;20307;-54
2022/11/26 10:11:31;;;;;;;441.83;150.27;;;;;;;;;;4976724;28;20221;-54
2022/11/26 10:14:07;;;;;;;340.77;132.67;;;;;;;;;;4983421;28;20231;-53
2022/11/26 10:16:42;;;;;;;530.43;184.40;;;;;;;;;;4983818;28;20226;-54
2022/11/26 10:19:24;;;;;;;314.97;121.60;;;;;;;;;;4988896;28;20581;-54
2022/11/26 10:21:56;;;;;;;481.80;185.70;;;;;;;;;;4977867;28;20712;-54
2022/11/26 10:24:26;;;;;;;485.03;173.70;;;;;;;;;;4978722;28;20197;-54
2022/11/26 10:26:52;;;;;;;435.17;166.80;;;;;;;;;;4976347;28;21691;-54
2022/11/26 10:29:26;;;;;;;460.33;166.87;;;;;;;;;;4986014;28;20264;-55
2022/11/26 10:32:00;;;;;;;362.03;135.77;;;;;;;;;;4983741;28;20570;-54
2022/11/26 10:34:44;;;;;;;428.90;158.43;;;;;;;;;;4992530;28;20223;-54
2022/11/26 10:37:10;;;;;;;502.97;180.83;;;;;;;;;;4980776;28;20596;-55
2022/11/26 10:39:36;;;;;;;399.17;139.73;;;;;;;;;;4986490;28;20223;-54
2022/11/26 10:42:22;;;;;;;366.57;144.87;;;;;;;;;;4981889;28;20703;-53
2022/11/26 10:44:49;;;;;;;344.53;122.43;;;;;;;;;;4996714;28;20224;-54
2022/11/26 10:47:15;;;;;;;400.37;140.37;;;;;;;;;;5017260;28;20216;-54
2022/11/26 10:49:41;;;;;;;583.53;195.57;;;;;;;;;;4961737;28;20311;-53
2022/11/26 10:52:08;;;;;;;367.43;138.77;;;;;;;;;;4987470;28;20227;-54
2022/11/26 10:54:35;;;;;;;384.10;147.63;;;;;;;;;;4998493;28;20196;-53
2022/11/26 10:57:03;;;;;;;492.27;162.27;;;;;;;;;;4990699;28;20212;-54
2022/11/26 10:59:35;;;;;;;413.17;152.37;;;;;;;;;;4986875;28;20294;-54
2022/11/26 11:02:02;;;;;;;411.17;153.93;;;;;;;;;;4995170;28;20208;-54
2022/11/26 11:04:30;;;;;;;239.33;105.33;;;;;;;;;;5005454;28;20693;-54
2022/11/26 11:06:57;;;;;;;408.60;166.93;;;;;;;;;;5003868;28;20627;-53
2022/11/26 11:09:25;;;;;;;336.20;134.87;;;;;;;;;;5004466;28;20247;-54
2022/11/26 11:12:09;;;;;;;432.37;162.77;;;;;;;;;;5004389;28;20244;-54
2022/11/26 11:14:35;;;;;;;421.53;161.73;;;;;;;;;;5000639;28;20229;-54
2022/11/26 11:17:02;;;;;;;385.90;146.40;;;;;;;;;;4997542;28;21005;-54
2022/11/26 11:19:28;;;;;;;303.47;118.97;;;;;;;;;;4999184;28;20217;-54
2022/11/26 11:21:54;;;;;;;413.40;149.10;;;;;;;;;;5009805;28;20216;-54
2022/11/26 11:24:22;;;;;;;397.20;146.67;;;;;;;;;;5011874;28;20242;-53
2022/11/26 11:26:52;;;;;;;560.00;199.87;;;;;;;;;;4999771;28;20839;-53
2022/11/26 11:29:26;;;;;;;293.90;121.40;;;;;;;;;;5003746;28;20448;-54
2022/11/26 11:31:52;;;;;;;390.53;146.07;;;;;;;;;;4995087;28;20640;-54
2022/11/26 11:34:37;;;;;;;402.40;156.93;;;;;;;;;;4982826;28;20303;-54
2022/11/26 11:37:05;;;;;;;447.60;176.33;;;;;;;;;;4983763;28;20311;-54
2022/11/26 11:39:32;;;;;;;474.70;175.40;;;;;;;;;;5003576;28;20193;-54
2022/11/26 11:41:59;;;;;;;323.40;140.87;;;;;;;;;;4985881;28;20209;-53
2022/11/26 11:44:42;;;;;;;341.90;143.20;;;;;;;;;;4994265;28;20299;-54
2022/11/26 11:47:20;;;;;;;423.90;180.47;;;;;;;;;;4988955;28;20776;-54
2022/11/26 11:49:58;;;;;;;568.63;221.83;;;;;;;;;;4982079;28;20216;-54
2022/11/26 11:52:45;;;;;;;452.80;193.27;;;;;;;;;;4983603;28;20232;-53
2022/11/26 11:55:21;;;;;;;403.87;153.07;;;;;;;;;;4992178;28;20314;-54
2022/11/26 11:57:56;;;;;;;386.87;148.87;;;;;;;;;;4993035;28;20221;-55
2022/11/26 12:00:40;;;;;;;444.53;172.27;;;;;;;;;;4964226;28;20189;-54
2022/11/26 12:03:26;;;;;;;408.47;154.67;;;;;;;;;;4976972;28;20201;-55
2022/11/26 12:06:04;;;;;;;352.17;144.20;;;;;;;;;;4987526;28;20219;-54
2022/11/26 12:08:40;;;;;;;412.57;157.00;;;;;;;;;;4986098;28;21950;-54
2022/11/26 12:11:25;;;;;;;584.27;221.13;;;;;;;;;;4980640;28;20725;-54
2022/11/26 12:13:57;;;;;;;406.57;155.40;;;;;;;;;;4986266;28;22190;-55
2022/11/26 12:16:25;;;;;;;377.47;141.23;;;;;;;;;;4991543;28;20730;-54
2022/11/26 12:19:11;;;;;;;279.60;124.50;;;;;;;;;;5001048;28;20257;-55
2022/11/26 12:21:40;;;;;;;415.87;166.90;;;;;;;;;;4994948;28;20228;-55
2022/11/26 12:24:11;;;;;;;270.27;122.33;;;;;;;;;;4997133;28;20192;-54
2022/11/26 12:26:43;;;;;;;530.27;207.77;;;;;;;;;;4985225;28;20228;-55
2022/11/26 12:29:11;;;;;;;428.87;161.17;;;;;;;;;;4978371;28;20267;-54
2022/11/26 12:31:45;;;;;;;482.53;190.53;;;;;;;;;;4986192;28;20229;-55
2022/11/26 12:34:25;;;;;;;311.23;138.20;;;;;;;;;;4983868;28;20280;-54
2022/11/26 12:37:06;;;;;;;387.93;161.93;;;;;;;;;;4992067;28;20235;-54
2022/11/26 12:39:42;;;;;;;324.30;148.97;;;;;;;;;;4982885;28;21596;-54
2022/11/26 12:42:16;;;;;;;448.73;184.80;;;;;;;;;;4991188;28;20273;-54
2022/11/26 12:44:44;;;;;;;536.73;200.90;;;;;;;;;;4978600;28;20220;-54
2022/11/26 12:47:10;;;;;;;509.87;188.17;;;;;;;;;;4982986;28;20696;-55
2022/11/26 12:49:55;;;;;;;342.03;143.47;;;;;;;;;;4993537;28;20271;-54
2022/11/26 12:52:24;;;;;;;481.30;182.63;;;;;;;;;;5005409;28;20223;-54
2022/11/26 12:55:09;;;;;;;476.47;189.40;;;;;;;;;;5015016;28;20756;-53
2022/11/26 12:57:40;;;;;;;442.83;169.63;;;;;;;;;;4999196;28;20212;-54
2022/11/26 13:00:10;;;;;;;422.67;164.47;;;;;;;;;;4994479;28;20712;-54
2022/11/26 13:02:43;;;;;;;461.70;192.63;;;;;;;;;;5000348;28;20224;-54
2022/11/26 13:05:18;;;;;;;436.37;181.50;;;;;;;;;;4998253;28;20384;-54
2022/11/26 13:07:44;;;;;;;402.57;164.97;;;;;;;;;;4996400;28;20548;-54
2022/11/26 13:10:18;;;;;;;366.63;147.77;;;;;;;;;;4993777;28;20212;-55
2022/11/26 13:12:51;;;;;;;462.60;195.97;;;;;;;;;;4990137;28;20676;-54
2022/11/26 13:15:22;;;;;;;370.27;159.27;;;;;;;;;;4998809;28;20184;-54
2022/11/26 13:17:49;;;;;;;472.50;194.70;;;;;;;;;;4985843;28;20216;-54
2022/11/26 13:20:34;;;;;;;273.10;124.93;;;;;;;;;;4986486;28;20224;-54
2022/11/26 13:23:11;;;;;;;576.93;228.67;;;;;;;;;;4995187;28;20256;-54
2022/11/26 13:25:48;;;;;;;540.17;213.63;;;;;;;;;;5003317;28;20278;-54
2022/11/26 13:28:26;;;;;;;401.73;172.70;;;;;;;;;;4999832;28;20355;-54
2022/11/26 13:30:55;;;;;;;391.03;151.97;;;;;;;;;;4992842;28;20380;-54
2022/11/26 13:33:21;;;;;;;322.70;144.00;;;;;;;;;;4990512;28;20239;-54
2022/11/26 13:36:09;;;;;;;420.20;169.67;;;;;;;;;;4988070;28;20275;-54
2022/11/26 13:38:49;;;;;;;440.20;180.40;;;;;;;;;;4974376;28;20227;-57
2022/11/26 13:41:26;;;;;;;561.30;223.97;;;;;;;;;;4985433;28;20236;-54
2022/11/26 13:44:07;;;;;;;356.87;154.20;;;;;;;;;;4983611;28;20561;-54
2022/11/26 13:46:41;;;;;;;536.70;207.27;;;;;;;;;;4997417;28;20224;-56
2022/11/26 13:49:11;;;;;;;357.97;150.30;;;;;;;;;;5001706;28;20303;-55
2022/11/26 13:52:00;;;;;;;427.63;162.57;;;;;;;;;;5005049;28;20281;-53
2022/11/26 13:54:31;;;;;;;337.57;139.63;;;;;;;;;;5015461;28;20169;-54
2022/11/26 13:57:02;;;;;;;339.10;141.57;;;;;;;;;;5025067;28;20199;-53
2022/11/26 13:59:29;;;;;;;341.23;137.60;;;;;;;;;;5007345;28;20216;-53
2022/11/26 14:01:55;;;;;;;424.97;166.93;;;;;;;;;;5003156;28;20217;-54
2022/11/26 14:04:21;;;;;;;361.77;143.90;;;;;;;;;;5006557;28;20224;-53
2022/11/26 14:07:17;;;;;;;443.20;179.20;;;;;;;;;;5008151;28;20689;-53